Time;durP1;ratioP1;P1;durP2;ratioP2;P2;SDS_P1;SDS_P2;PMS_P1;PMS_P2;Temp;Humidity;BMP_temperature;BMP_pressure;BME280_temperature;BME280_humidity;BME280_pressure;Samples;Min_cycle;Max_cycle;Signal;HPM_P1;HPM_P2
2021/07/23 00:00:28;;;;;;;3.90;3.47;;;26.10;57.50;;;;;;5094256;28;20221;-72
2021/07/23 00:03:00;;;;;;;3.80;3.50;;;26.10;57.40;;;;;;5103691;28;20212;-72
2021/07/23 00:05:28;;;;;;;3.53;3.23;;;26.10;57.40;;;;;;5103192;28;20204;-72
2021/07/23 00:08:01;;;;;;;5.43;2.87;;;26.10;57.40;;;;;;5107582;28;20189;-72
2021/07/23 00:10:30;;;;;;;3.97;3.40;;;26.10;57.30;;;;;;5112353;28;20618;-72
2021/07/23 00:13:00;;;;;;;3.60;3.30;;;26.10;57.20;;;;;;5107218;28;20625;-72
2021/07/23 00:15:33;;;;;;;3.23;2.97;;;26.10;57.10;;;;;;5110935;28;20201;-72
2021/07/23 00:18:04;;;;;;;3.80;3.50;;;26.10;57.10;;;;;;5104967;28;20207;-72
2021/07/23 00:20:35;;;;;;;3.10;2.80;;;26.10;57.20;;;;;;5111902;28;20224;-72
2021/07/23 00:23:06;;;;;;;3.83;3.53;;;26.10;57.10;;;;;;5107103;28;20630;-72
2021/07/23 00:25:37;;;;;;;3.10;2.90;;;26.10;57.10;;;;;;5109793;28;20228;-72
2021/07/23 00:28:05;;;;;;;4.63;3.50;;;26.10;57.00;;;;;;5110069;28;20252;-72
2021/07/23 00:30:34;;;;;;;3.50;3.20;;;26.00;56.90;;;;;;5106384;28;20625;-72
2021/07/23 00:33:05;;;;;;;3.20;3.00;;;26.00;56.90;;;;;;5100094;28;20193;-72
2021/07/23 00:35:34;;;;;;;3.43;3.13;;;26.10;56.90;;;;;;5102951;28;20209;-72
2021/07/23 00:38:05;;;;;;;3.00;2.80;;;26.00;56.80;;;;;;5109381;28;20238;-72
2021/07/23 00:40:36;;;;;;;3.93;3.63;;;26.00;56.80;;;;;;5106784;28;20217;-72
2021/07/23 00:43:07;;;;;;;4.40;3.00;;;26.00;56.70;;;;;;5105798;28;20211;-72
2021/07/23 00:45:38;;;;;;;3.70;3.20;;;26.00;56.70;;;;;;5103335;28;20195;-72
2021/07/23 00:48:09;;;;;;;2.90;2.70;;;26.00;56.70;;;;;;5111869;28;20783;-72
2021/07/23 00:50:37;;;;;;;3.40;3.10;;;26.00;56.60;;;;;;5106724;28;20196;-72
2021/07/23 00:53:10;;;;;;;3.50;3.20;;;26.00;56.60;;;;;;5101436;28;20208;-72
2021/07/23 00:55:48;;;;;;;3.30;3.00;;;26.00;56.50;;;;;;5102306;28;20198;-72
2021/07/23 00:58:18;;;;;;;3.20;3.00;;;26.00;56.50;;;;;;5107450;28;20192;-71
2021/07/23 01:00:55;;;;;;;4.07;3.67;;;26.00;56.40;;;;;;5099904;28;20208;-72
2021/07/23 01:03:26;;;;;;;4.00;2.90;;;26.00;56.40;;;;;;5092077;28;20185;-72
2021/07/23 01:05:56;;;;;;;3.03;2.83;;;26.00;56.40;;;;;;5104840;28;20229;-72
2021/07/23 01:08:25;;;;;;;3.10;2.90;;;26.00;56.30;;;;;;5084533;28;20204;-72
2021/07/23 01:10:54;;;;;;;3.17;2.97;;;25.90;56.20;;;;;;5108555;28;20502;-72
2021/07/23 01:13:26;;;;;;;3.30;3.00;;;25.90;56.20;;;;;;5089708;28;20193;-71
2021/07/23 01:15:55;;;;;;;3.27;2.97;;;25.90;56.20;;;;;;5096448;28;20204;-71
2021/07/23 01:18:23;;;;;;;3.37;3.10;;;25.90;56.20;;;;;;5102748;28;20757;-71
2021/07/23 01:20:55;;;;;;;3.50;3.20;;;25.90;56.10;;;;;;5091962;28;20232;-71
2021/07/23 01:23:36;;;;;;;3.33;3.03;;;25.90;56.10;;;;;;5100975;28;20192;-71
2021/07/23 01:26:23;;;;;;;3.23;3.03;;;25.90;56.00;;;;;;5107244;28;20418;-71
2021/07/23 01:28:54;;;;;;;3.20;3.00;;;25.90;56.00;;;;;;5103886;28;20211;-71
2021/07/23 01:31:24;;;;;;;2.90;2.70;;;25.90;56.00;;;;;;5109975;28;20621;-71
2021/07/23 01:33:54;;;;;;;3.20;3.00;;;25.90;56.00;;;;;;5105730;28;20196;-71
2021/07/23 01:36:25;;;;;;;3.60;3.00;;;25.90;56.00;;;;;;5104597;28;20212;-71
2021/07/23 01:38:57;;;;;;;2.90;2.70;;;25.90;56.00;;;;;;5106194;28;20196;-71
2021/07/23 01:41:27;;;;;;;3.40;3.10;;;25.90;56.00;;;;;;5099942;28;20235;-71
2021/07/23 01:44:00;;;;;;;3.10;2.90;;;25.80;55.40;;;;;;5107508;28;20196;-71
2021/07/23 01:46:29;;;;;;;3.13;2.93;;;25.80;55.80;;;;;;5101197;28;20200;-71
2021/07/23 01:49:01;;;;;;;3.90;2.87;;;25.80;55.90;;;;;;5101122;28;20766;-71
2021/07/23 01:51:28;;;;;;;3.10;2.90;;;25.80;55.80;;;;;;5098966;28;20203;-71
2021/07/23 01:53:59;;;;;;;3.23;3.03;;;25.80;55.80;;;;;;5109547;28;20200;-71
2021/07/23 01:56:33;;;;;;;2.87;2.67;;;25.80;55.80;;;;;;5104512;28;20715;-71
2021/07/23 01:59:04;;;;;;;3.37;3.17;;;25.80;55.80;;;;;;5108633;28;20270;-71
2021/07/23 02:01:46;;;;;;;3.20;2.90;;;25.80;55.80;;;;;;5106543;28;20222;-71
2021/07/23 02:04:18;;;;;;;3.60;3.20;;;25.80;55.70;;;;;;5106765;28;20192;-71
2021/07/23 02:06:48;;;;;;;3.40;3.10;;;25.80;55.60;;;;;;5107661;28;20203;-71
2021/07/23 02:09:15;;;;;;;3.03;2.83;;;25.80;56.20;;;;;;5108288;28;20192;-71
2021/07/23 02:11:44;;;;;;;3.30;3.10;;;25.80;55.50;;;;;;5086859;28;20697;-71
2021/07/23 02:14:21;;;;;;;3.37;2.53;;;25.80;55.50;;;;;;5101601;28;20212;-71
2021/07/23 02:16:56;;;;;;;3.13;2.83;;;25.80;55.40;;;;;;5096718;28;20277;-71
2021/07/23 02:19:27;;;;;;;2.83;2.63;;;25.70;55.30;;;;;;5104688;28;20193;-71
2021/07/23 02:21:58;;;;;;;2.90;2.70;;;25.70;55.20;;;;;;5098687;28;20291;-71
2021/07/23 02:24:27;;;;;;;2.87;2.67;;;25.70;55.20;;;;;;5102665;28;20228;-71
2021/07/23 02:26:58;;;;;;;3.17;2.87;;;25.70;55.20;;;;;;5107470;28;20200;-71
2021/07/23 02:29:28;;;;;;;2.77;2.57;;;25.70;55.10;;;;;;5097406;28;20630;-71
2021/07/23 02:31:59;;;;;;;3.17;2.97;;;25.70;55.00;;;;;;5094474;28;20204;-71
2021/07/23 02:34:32;;;;;;;3.43;3.13;;;25.70;55.00;;;;;;5101582;28;20640;-71
2021/07/23 02:37:01;;;;;;;3.10;2.80;;;25.70;55.00;;;;;;5106692;28;20222;-70
2021/07/23 02:39:35;;;;;;;3.67;3.37;;;25.70;54.90;;;;;;5102855;28;20200;-70
2021/07/23 02:42:04;;;;;;;3.00;2.80;;;25.70;54.80;;;;;;5098635;28;20591;-71
2021/07/23 02:44:35;;;;;;;3.13;2.83;;;25.70;54.90;;;;;;5106937;28;20208;-70
2021/07/23 02:47:07;;;;;;;3.17;2.90;;;25.70;54.90;;;;;;5101545;28;20210;-70
2021/07/23 02:49:35;;;;;;;3.13;2.93;;;25.70;54.80;;;;;;5098331;28;20205;-70
2021/07/23 02:52:08;;;;;;;3.67;2.77;;;25.70;54.80;;;;;;5098225;28;20204;-71
2021/07/23 02:54:36;;;;;;;3.33;3.03;;;25.70;54.70;;;;;;5107992;28;20184;-70
2021/07/23 02:57:07;;;;;;;2.80;2.60;;;25.60;54.60;;;;;;5101272;28;20200;-70
2021/07/23 02:59:39;;;;;;;3.40;3.10;;;25.70;54.70;;;;;;5111414;28;20208;-70
2021/07/23 03:02:10;;;;;;;3.10;2.90;;;25.60;54.70;;;;;;5110095;28;20281;-70
2021/07/23 03:04:39;;;;;;;2.70;2.50;;;25.60;54.60;;;;;;5111545;28;20238;-70
2021/07/23 03:07:23;;;;;;;2.83;2.60;;;25.60;54.70;;;;;;5104874;28;20188;-70
2021/07/23 03:09:55;;;;;;;3.03;2.83;;;25.60;54.60;;;;;;5102963;28;20232;-71
2021/07/23 03:12:27;;;;;;;2.70;2.50;;;25.60;54.60;;;;;;5105515;28;20253;-70
2021/07/23 03:14:56;;;;;;;2.97;2.77;;;25.60;54.60;;;;;;5105582;28;20204;-71
2021/07/23 03:17:25;;;;;;;3.50;2.67;;;25.60;54.60;;;;;;5109230;28;20207;-71
2021/07/23 03:19:55;;;;;;;3.00;2.67;;;25.50;54.60;;;;;;5108437;28;20218;-70
2021/07/23 03:22:24;;;;;;;3.00;2.70;;;25.50;54.60;;;;;;5111192;28;20258;-70
2021/07/23 03:24:57;;;;;;;3.10;2.90;;;25.50;54.60;;;;;;5100211;28;20935;-70
2021/07/23 03:27:28;;;;;;;3.07;2.87;;;25.50;54.60;;;;;;5093405;28;20208;-70
2021/07/23 03:30:01;;;;;;;3.00;2.80;;;25.50;54.60;;;;;;5102300;27;20203;-70
2021/07/23 03:32:33;;;;;;;3.30;3.00;;;25.50;54.50;;;;;;5101630;28;20222;-70
2021/07/23 03:35:05;;;;;;;3.57;2.90;;;25.50;54.60;;;;;;5103073;28;20195;-70
2021/07/23 03:37:37;;;;;;;3.33;2.83;;;25.50;54.50;;;;;;5111642;28;20266;-71
2021/07/23 03:40:09;;;;;;;3.30;3.00;;;25.50;54.50;;;;;;5107039;28;20562;-70
2021/07/23 03:42:39;;;;;;;3.03;2.77;;;25.50;54.50;;;;;;5103029;28;20570;-70
2021/07/23 03:45:10;;;;;;;3.43;3.17;;;25.50;54.50;;;;;;5108836;28;20189;-71
2021/07/23 03:47:41;;;;;;;3.27;2.53;;;25.50;54.50;;;;;;5109557;28;20204;-70
2021/07/23 03:50:12;;;;;;;3.07;2.87;;;25.50;54.50;;;;;;5107142;28;20249;-70
2021/07/23 03:52:41;;;;;;;3.10;2.80;;;25.50;54.40;;;;;;5105988;28;20224;-70
2021/07/23 03:55:12;;;;;;;3.13;2.83;;;25.50;54.40;;;;;;5111997;28;20200;-70
2021/07/23 03:57:42;;;;;;;2.90;2.70;;;25.50;54.30;;;;;;5102324;28;20254;-70
2021/07/23 04:00:12;;;;;;;3.10;2.90;;;25.50;54.30;;;;;;5113102;28;20196;-70
2021/07/23 04:02:41;;;;;;;2.97;2.73;;;25.50;54.20;;;;;;5103956;28;20212;-70
2021/07/23 04:05:14;;;;;;;2.90;2.70;;;25.50;54.20;;;;;;5100560;28;20235;-71
2021/07/23 04:07:43;;;;;;;3.57;3.30;;;25.50;54.20;;;;;;5102994;28;20197;-70
2021/07/23 04:10:13;;;;;;;3.27;3.07;;;25.50;54.20;;;;;;5110868;28;20305;-70
2021/07/23 04:12:44;;;;;;;3.03;2.83;;;25.40;54.00;;;;;;5103045;28;20268;-70
2021/07/23 04:15:16;;;;;;;3.47;3.17;;;25.40;54.00;;;;;;5110462;28;20239;-70
2021/07/23 04:17:48;;;;;;;3.27;3.07;;;25.40;53.90;;;;;;5104709;28;20186;-71
2021/07/23 04:20:20;;;;;;;5.07;2.97;;;25.40;53.90;;;;;;5114145;28;20200;-70
2021/07/23 04:22:50;;;;;;;3.07;2.87;;;25.40;53.70;;;;;;5107296;28;20223;-70
2021/07/23 04:25:22;;;;;;;3.40;3.10;;;25.40;53.70;;;;;;5107845;28;20224;-70
2021/07/23 04:27:52;;;;;;;3.07;2.87;;;25.40;53.60;;;;;;5106548;28;20192;-70
2021/07/23 04:30:22;;;;;;;3.53;3.00;;;25.40;53.60;;;;;;5105632;28;20204;-70
2021/07/23 04:32:50;;;;;;;3.53;3.00;;;25.40;53.60;;;;;;5099920;28;20201;-70
2021/07/23 04:35:23;;;;;;;3.00;2.80;;;25.40;53.40;;;;;;5107427;28;20192;-70
2021/07/23 04:37:54;;;;;;;3.17;2.97;;;25.40;53.50;;;;;;5109575;28;20556;-70
2021/07/23 04:40:24;;;;;;;3.00;2.80;;;25.40;53.40;;;;;;5104704;28;20208;-70
2021/07/23 04:42:54;;;;;;;3.17;2.87;;;25.40;53.30;;;;;;5102690;28;20219;-71
2021/07/23 04:45:28;;;;;;;2.93;2.73;;;25.40;53.30;;;;;;5106149;28;20222;-70
2021/07/23 04:48:00;;;;;;;3.10;2.80;;;25.40;53.30;;;;;;5108223;28;20633;-70
2021/07/23 04:50:31;;;;;;;2.90;2.70;;;25.40;53.30;;;;;;5099930;28;20204;-70
2021/07/23 04:53:04;;;;;;;3.13;2.83;;;25.40;53.40;;;;;;5094306;28;20223;-71
2021/07/23 04:55:35;;;;;;;3.23;2.93;;;25.40;53.40;;;;;;5099814;28;20213;-71
2021/07/23 04:58:13;;;;;;;3.00;2.80;;;25.40;53.50;;;;;;5104608;28;20192;-71
2021/07/23 05:00:42;;;;;;;3.27;2.60;;;25.40;53.40;;;;;;5100647;28;20196;-71
2021/07/23 05:03:11;;;;;;;2.80;2.60;;;25.40;53.50;;;;;;5103132;28;20224;-71
2021/07/23 05:05:44;;;;;;;3.10;2.80;;;25.40;54.20;;;;;;5106628;28;20192;-71
2021/07/23 05:08:14;;;;;;;2.73;2.53;;;25.30;53.70;;;;;;5071181;28;20288;-71
2021/07/23 05:10:47;;;;;;;2.93;2.73;;;25.40;53.80;;;;;;5092281;28;20181;-71
2021/07/23 05:13:21;;;;;;;3.77;2.80;;;25.30;53.80;;;;;;5101365;28;20222;-71
2021/07/23 05:15:53;;;;;;;3.17;2.90;;;25.30;53.70;;;;;;5109892;28;20212;-71
2021/07/23 05:18:24;;;;;;;6.10;3.00;;;25.40;53.70;;;;;;5102166;28;20192;-71
2021/07/23 05:20:55;;;;;;;3.17;2.93;;;25.30;53.60;;;;;;5072358;28;20246;-71
2021/07/23 05:23:24;;;;;;;2.63;2.43;;;25.30;53.60;;;;;;5087380;28;20212;-71
2021/07/23 05:25:54;;;;;;;3.00;2.73;;;25.40;53.60;;;;;;5101786;28;20259;-71
2021/07/23 05:28:30;;;;;;;4.27;2.80;;;25.30;53.50;;;;;;5106570;28;20740;-71
2021/07/23 05:31:06;;;;;;;2.93;2.67;;;25.30;53.40;;;;;;5103882;28;20227;-72
2021/07/23 05:33:40;;;;;;;3.17;2.87;;;25.30;53.40;;;;;;5108923;28;20188;-71
2021/07/23 05:36:09;;;;;;;2.80;2.50;;;25.30;53.40;;;;;;5105641;28;20212;-71
2021/07/23 05:38:41;;;;;;;3.13;2.80;;;25.30;53.30;;;;;;5104221;28;20192;-70
2021/07/23 05:41:11;;;;;;;3.30;2.73;;;25.30;53.30;;;;;;5105414;28;20211;-70
2021/07/23 05:43:40;;;;;;;3.23;2.50;;;25.30;53.30;;;;;;5108754;28;20204;-69
2021/07/23 05:46:10;;;;;;;3.17;2.67;;;25.30;53.20;;;;;;5102475;28;20212;-72
2021/07/23 05:48:40;;;;;;;3.23;2.30;;;25.30;53.00;;;;;;5109299;28;20188;-71
2021/07/23 05:51:10;;;;;;;3.00;2.70;;;25.30;52.90;;;;;;5095220;28;20265;-70
2021/07/23 05:53:42;;;;;;;3.90;2.50;;;25.30;52.90;;;;;;5109277;28;20642;-70
2021/07/23 05:56:28;;;;;;;3.03;2.80;;;25.30;52.90;;;;;;5102795;28;20385;-70
2021/07/23 05:58:58;;;;;;;4.80;2.67;;;25.30;52.80;;;;;;5108039;28;20215;-70
2021/07/23 06:01:28;;;;;;;3.17;2.30;;;25.30;52.80;;;;;;5096422;28;20823;-71
2021/07/23 06:04:08;;;;;;;4.07;2.87;;;25.30;52.70;;;;;;5107129;28;20215;-71
2021/07/23 06:06:37;;;;;;;2.73;2.53;;;25.30;52.70;;;;;;5101383;28;20188;-71
2021/07/23 06:09:10;;;;;;;3.10;2.80;;;25.30;52.70;;;;;;5101339;28;20212;-71
2021/07/23 06:11:41;;;;;;;3.17;2.97;;;25.30;52.70;;;;;;5108038;28;20208;-70
2021/07/23 06:14:18;;;;;;;2.93;2.73;;;25.20;52.60;;;;;;5097904;28;20221;-70
2021/07/23 06:16:49;;;;;;;3.20;2.90;;;25.30;52.70;;;;;;5108902;28;20204;-70
2021/07/23 06:19:19;;;;;;;2.87;2.57;;;25.20;52.50;;;;;;5101885;28;20197;-70
2021/07/23 06:21:51;;;;;;;2.90;2.70;;;25.30;52.60;;;;;;5092093;28;20196;-70
2021/07/23 06:24:18;;;;;;;2.80;2.60;;;25.30;52.60;;;;;;5097400;28;20264;-70
2021/07/23 06:26:46;;;;;;;2.50;2.30;;;25.20;52.50;;;;;;5097135;28;20251;-70
2021/07/23 06:29:15;;;;;;;2.57;2.37;;;25.30;52.60;;;;;;5097672;28;20194;-69
2021/07/23 06:31:47;;;;;;;3.10;2.90;;;25.30;52.60;;;;;;5099566;28;20287;-70
2021/07/23 06:34:16;;;;;;;2.47;2.27;;;25.20;52.50;;;;;;5100481;28;20265;-70
2021/07/23 06:36:45;;;;;;;2.63;2.43;;;25.30;52.60;;;;;;5107051;28;20569;-71
2021/07/23 06:39:16;;;;;;;3.07;2.43;;;25.30;52.60;;;;;;5102774;28;20202;-71
2021/07/23 06:41:44;;;;;;;2.63;2.43;;;25.20;52.50;;;;;;5103166;28;20189;-71
2021/07/23 06:44:16;;;;;;;3.37;2.50;;;25.30;52.60;;;;;;5101006;28;20668;-70
2021/07/23 06:46:46;;;;;;;2.53;2.27;;;25.30;52.50;;;;;;5097350;28;20201;-70
2021/07/23 06:49:17;;;;;;;2.80;2.60;;;25.20;52.50;;;;;;5094797;28;20208;-70
2021/07/23 06:51:48;;;;;;;2.97;2.37;;;25.30;52.60;;;;;;5100031;28;20240;-70
2021/07/23 06:54:18;;;;;;;3.70;2.50;;;25.30;52.60;;;;;;5107540;28;20253;-70
2021/07/23 06:56:52;;;;;;;2.70;2.33;;;25.30;52.60;;;;;;5093287;28;20239;-70
2021/07/23 06:59:25;;;;;;;2.60;2.40;;;25.30;52.60;;;;;;5098190;28;20196;-70
2021/07/23 07:01:55;;;;;;;2.60;2.40;;;25.30;52.60;;;;;;5103118;28;20196;-70
2021/07/23 07:04:30;;;;;;;2.57;2.33;;;25.30;52.50;;;;;;5106530;28;20594;-70
2021/07/23 07:07:01;;;;;;;2.67;2.47;;;25.20;52.50;;;;;;5101220;28;20640;-70
2021/07/23 07:09:44;;;;;;;2.60;2.40;;;25.30;52.60;;;;;;5105212;28;20283;-70
2021/07/23 07:12:14;;;;;;;2.47;2.27;;;25.30;52.60;;;;;;5104626;28;20502;-70
2021/07/23 07:14:45;;;;;;;2.30;2.10;;;25.30;52.60;;;;;;5104727;28;20221;-70
2021/07/23 07:17:20;;;;;;;2.90;2.57;;;25.30;52.50;;;;;;5106007;28;20212;-70
2021/07/23 07:19:52;;;;;;;2.33;2.13;;;25.30;52.50;;;;;;5103243;28;20204;-70
2021/07/23 07:22:24;;;;;;;2.60;2.40;;;25.30;52.60;;;;;;5105994;28;20287;-70
2021/07/23 07:24:55;;;;;;;2.30;2.10;;;25.30;52.60;;;;;;5101659;28;20240;-70
2021/07/23 07:27:25;;;;;;;2.30;2.10;;;25.30;52.50;;;;;;5091381;28;20192;-70
2021/07/23 07:29:53;;;;;;;2.67;2.37;;;25.30;52.60;;;;;;5096770;28;20212;-70
2021/07/23 07:32:24;;;;;;;2.80;2.40;;;25.30;52.60;;;;;;5097307;28;20216;-70
2021/07/23 07:34:56;;;;;;;2.30;2.10;;;25.30;52.60;;;;;;5101539;28;20207;-70
2021/07/23 07:37:27;;;;;;;2.37;2.17;;;25.30;52.50;;;;;;5106515;28;20212;-70
2021/07/23 07:39:58;;;;;;;3.07;2.27;;;25.30;52.50;;;;;;5100854;28;20204;-70
2021/07/23 07:42:41;;;;;;;5.20;2.13;;;25.30;52.50;;;;;;5093488;28;20213;-68
2021/07/23 07:45:10;;;;;;;4.87;2.17;;;25.30;53.20;;;;;;5097697;28;20407;-66
2021/07/23 07:47:42;;;;;;;3.67;1.90;;;25.30;52.80;;;;;;5104990;28;20189;-67
2021/07/23 07:50:13;;;;;;;2.50;2.13;;;25.40;52.90;;;;;;5102664;28;20188;-67
2021/07/23 07:52:43;;;;;;;2.70;2.13;;;25.40;53.00;;;;;;5106685;28;20255;-69
2021/07/23 07:55:13;;;;;;;2.53;2.30;;;25.40;52.90;;;;;;5097727;28;20199;-70
2021/07/23 07:57:45;;;;;;;2.10;1.90;;;25.40;52.90;;;;;;5100942;28;20625;-68
2021/07/23 08:00:17;;;;;;;2.03;1.83;;;25.50;53.00;;;;;;5096921;28;20258;-68
2021/07/23 08:02:48;;;;;;;2.73;2.10;;;25.50;53.00;;;;;;5102868;28;20440;-70
2021/07/23 08:05:20;;;;;;;2.30;2.10;;;25.50;52.90;;;;;;5097438;28;20238;-68
2021/07/23 08:07:49;;;;;;;4.07;2.10;;;25.60;52.90;;;;;;5103946;28;20760;-68
2021/07/23 08:10:24;;;;;;;2.33;2.03;;;25.60;52.80;;;;;;5092441;28;20558;-69
2021/07/23 08:12:54;;;;;;;2.60;2.40;;;25.60;52.70;;;;;;5101195;28;20226;-65
2021/07/23 08:15:23;;;;;;;2.60;2.00;;;25.70;52.70;;;;;;5097055;28;20299;-68
2021/07/23 08:17:53;;;;;;;2.33;2.10;;;25.70;52.70;;;;;;5106744;28;20201;-68
2021/07/23 08:20:24;;;;;;;2.90;2.10;;;25.70;52.60;;;;;;5081503;28;20228;-67
2021/07/23 08:22:57;;;;;;;2.33;1.90;;;25.80;52.60;;;;;;5103266;28;20223;-69
2021/07/23 08:25:25;;;;;;;2.30;2.10;;;25.80;52.60;;;;;;5098868;28;20234;-70
2021/07/23 08:27:56;;;;;;;2.43;2.23;;;25.80;52.30;;;;;;5107548;28;20213;-71
2021/07/23 08:30:27;;;;;;;2.30;2.10;;;25.80;52.30;;;;;;5102702;28;20185;-71
2021/07/23 08:33:22;;;;;;;3.77;2.30;;;25.80;52.10;;;;;;5106922;28;20233;-71
2021/07/23 08:35:50;;;;;;;2.23;2.03;;;25.90;51.90;;;;;;5101599;28;20200;-66
2021/07/23 08:38:20;;;;;;;5.93;2.47;;;25.90;51.80;;;;;;5099606;28;20537;-69
2021/07/23 08:40:52;;;;;;;6.93;3.30;;;25.90;52.30;;;;;;5095710;28;20212;-69
2021/07/23 08:43:24;;;;;;;15.93;6.37;;;25.90;52.40;;;;;;5097383;28;20217;-71
2021/07/23 08:46:02;;;;;;;16.07;5.43;;;25.90;52.60;;;;;;5107251;28;20192;-71
2021/07/23 08:48:31;;;;;;;15.03;5.47;;;25.90;53.30;;;;;;5097926;28;20284;-71
2021/07/23 08:51:00;;;;;;;13.07;4.90;;;26.00;52.70;;;;;;5109229;28;20497;-71
2021/07/23 08:53:31;;;;;;;11.43;4.47;;;26.00;52.60;;;;;;5100007;28;20207;-69
2021/07/23 08:56:04;;;;;;;8.13;4.30;;;26.00;52.70;;;;;;5094886;28;20223;-69
2021/07/23 08:58:36;;;;;;;12.23;4.33;;;26.10;52.40;;;;;;5103348;28;20633;-69
2021/07/23 09:01:07;;;;;;;9.93;3.90;;;26.10;52.20;;;;;;5104636;28;20200;-69
2021/07/23 09:03:41;;;;;;;8.53;3.93;;;26.10;51.90;;;;;;5103511;28;20214;-68
2021/07/23 09:06:19;;;;;;;12.13;3.60;;;26.00;51.70;;;;;;5109838;28;20283;-68
2021/07/23 09:08:54;;;;;;;16.47;3.93;;;26.10;51.50;;;;;;5101494;27;20192;-69
2021/07/23 09:11:28;;;;;;;8.97;3.33;;;26.10;51.30;;;;;;5108228;28;20218;-68
2021/07/23 09:14:16;;;;;;;4.93;3.07;;;26.10;51.30;;;;;;5103559;27;20210;-68
2021/07/23 09:16:55;;;;;;;4.93;3.13;;;26.10;51.30;;;;;;5105016;28;20203;-71
2021/07/23 09:19:26;;;;;;;6.23;2.90;;;26.10;51.30;;;;;;5107920;28;20196;-70
2021/07/23 09:21:57;;;;;;;3.83;2.40;;;26.00;51.30;;;;;;5100626;28;20567;-71
2021/07/23 09:24:50;;;;;;;3.60;3.00;;;26.10;51.30;;;;;;5104588;28;20212;-71
2021/07/23 09:27:37;;;;;;;5.80;3.23;;;26.00;51.40;;;;;;5101619;28;20200;-73
2021/07/23 09:30:07;;;;;;;4.40;3.10;;;26.00;51.60;;;;;;5108135;28;20204;-69
2021/07/23 09:32:39;;;;;;;6.27;3.17;;;26.00;51.50;;;;;;5108278;28;20273;-68
2021/07/23 09:35:15;;;;;;;5.67;2.90;;;26.00;51.70;;;;;;5106167;28;20275;-71
2021/07/23 09:38:01;;;;;;;3.77;2.67;;;26.00;51.80;;;;;;5094519;28;20220;-72
2021/07/23 09:40:48;;;;;;;4.13;2.80;;;26.00;51.80;;;;;;5097771;28;20563;-72
2021/07/23 09:43:29;;;;;;;5.40;2.50;;;26.00;51.80;;;;;;5106896;28;20226;-72
2021/07/23 09:46:26;;;;;;;3.40;2.50;;;26.00;51.80;;;;;;5100630;28;20196;-69
2021/07/23 09:49:03;;;;;;;3.03;2.50;;;26.00;51.80;;;;;;5106840;28;20205;-68
2021/07/23 09:51:39;;;;;;;4.57;2.47;;;26.00;51.90;;;;;;5102686;28;20292;-70
2021/07/23 09:54:20;;;;;;;3.30;2.60;;;26.00;51.90;;;;;;5102978;27;20239;-70
2021/07/23 09:57:07;;;;;;;2.43;2.23;;;26.00;51.90;;;;;;5099036;28;20207;-69
2021/07/23 10:00:06;;;;;;;2.83;2.47;;;26.00;51.90;;;;;;5089077;28;20212;-69
2021/07/23 10:02:40;;;;;;;2.93;2.73;;;26.00;51.90;;;;;;5095373;28;20241;-69
2021/07/23 10:05:23;;;;;;;2.87;2.57;;;26.00;51.80;;;;;;5096802;28;20197;-70
2021/07/23 10:08:07;;;;;;;3.30;2.47;;;26.00;51.80;;;;;;5103245;28;20207;-70
2021/07/23 10:10:42;;;;;;;2.93;2.20;;;26.00;51.90;;;;;;5098904;28;20220;-73
2021/07/23 10:13:19;;;;;;;2.60;2.17;;;26.00;51.90;;;;;;5109920;28;20189;-73
2021/07/23 10:15:54;;;;;;;2.97;2.33;;;26.00;51.90;;;;;;5102697;28;20283;-70
2021/07/23 10:18:35;;;;;;;2.90;2.60;;;26.00;52.00;;;;;;5100635;28;20193;-70
2021/07/23 10:21:10;;;;;;;2.60;2.40;;;26.00;51.90;;;;;;5102600;28;20271;-70
2021/07/23 10:23:44;;;;;;;2.20;2.10;;;26.00;52.00;;;;;;5101476;28;20217;-70
2021/07/23 10:26:18;;;;;;;4.40;2.33;;;26.00;52.00;;;;;;5082554;28;20234;-71
2021/07/23 10:28:53;;;;;;;2.20;1.90;;;26.00;52.00;;;;;;5101125;28;20222;-70
2021/07/23 10:31:31;;;;;;;2.60;2.40;;;26.00;51.90;;;;;;5097516;28;20195;-70
2021/07/23 10:34:30;;;;;;;2.30;2.10;;;26.00;52.00;;;;;;5102750;28;20239;-71
2021/07/23 10:37:02;;;;;;;2.97;2.03;;;26.00;52.20;;;;;;5094279;28;20255;-71
2021/07/23 10:39:33;;;;;;;2.50;2.30;;;26.00;52.10;;;;;;5081308;28;20216;-72
2021/07/23 10:42:14;;;;;;;5.07;2.60;;;26.10;52.20;;;;;;5101396;28;20634;-72
2021/07/23 10:44:48;;;;;;;2.80;2.30;;;26.10;52.80;;;;;;5095705;28;20200;-72
2021/07/23 10:47:37;;;;;;;4.53;2.47;;;26.10;53.10;;;;;;5101246;28;20207;-72
2021/07/23 10:50:13;;;;;;;2.73;2.10;;;26.20;53.30;;;;;;5095184;28;20196;-71
2021/07/23 10:52:41;;;;;;;2.77;2.50;;;26.10;53.30;;;;;;5100068;28;20208;-70
2021/07/23 10:55:21;;;;;;;2.43;2.20;;;26.20;53.50;;;;;;5101860;28;20292;-72
2021/07/23 10:58:11;;;;;;;3.33;2.20;;;26.20;53.50;;;;;;5099102;28;20870;-72
2021/07/23 11:01:09;;;;;;;3.67;2.40;;;26.30;53.70;;;;;;5097830;28;20662;-73
2021/07/23 11:03:48;;;;;;;2.93;2.20;;;26.40;53.90;;;;;;5095087;28;20778;-73
2021/07/23 11:06:28;;;;;;;5.93;2.40;;;26.40;54.00;;;;;;5100917;28;20257;-74
2021/07/23 11:09:04;;;;;;;2.07;1.90;;;26.40;54.10;;;;;;5096222;28;20199;-74
2021/07/23 11:11:35;;;;;;;4.53;2.00;;;26.40;54.20;;;;;;5114967;28;20700;-75
2021/07/23 11:14:37;;;;;;;3.03;2.00;;;26.50;54.30;;;;;;5095713;28;20711;-75
2021/07/23 11:17:08;;;;;;;2.50;2.17;;;26.50;54.30;;;;;;5093871;28;20197;-71
2021/07/23 11:20:03;;;;;;;2.00;1.90;;;26.60;54.40;;;;;;5098850;28;20196;-72
2021/07/23 11:22:33;;;;;;;2.27;2.07;;;26.60;54.40;;;;;;5108272;28;20229;-72
2021/07/23 11:25:26;;;;;;;2.83;2.20;;;26.60;54.40;;;;;;5105246;28;20852;-73
2021/07/23 11:28:08;;;;;;;2.73;1.97;;;26.60;54.40;;;;;;5103182;28;20645;-74
2021/07/23 11:30:43;;;;;;;2.70;2.20;;;26.70;54.40;;;;;;5102900;28;20211;-70
2021/07/23 11:33:30;;;;;;;2.50;2.30;;;26.80;54.50;;;;;;5103927;28;20198;-71
2021/07/23 11:36:02;;;;;;;3.63;2.60;;;26.80;54.50;;;;;;5098048;28;20201;-72
2021/07/23 11:38:31;;;;;;;2.37;2.00;;;26.80;57.10;;;;;;5102719;27;20200;-69
2021/07/23 11:41:06;;;;;;;4.33;2.40;;;26.80;55.40;;;;;;5099800;28;20285;-70
2021/07/23 11:43:35;;;;;;;2.20;2.07;;;26.50;51.40;;;;;;5103841;28;20599;-70
2021/07/23 11:46:15;;;;;;;2.97;2.33;;;26.30;49.60;;;;;;5104364;28;20638;-70
2021/07/23 11:48:51;;;;;;;4.77;2.33;;;26.10;48.60;;;;;;5101992;28;20194;-69
2021/07/23 11:51:42;;;;;;;1.90;1.80;;;25.90;48.80;;;;;;5104366;28;20205;-68
2021/07/23 11:54:18;;;;;;;2.07;1.80;;;25.60;49.00;;;;;;5090092;28;20216;-68
2021/07/23 11:56:48;;;;;;;5.50;2.07;;;25.50;49.50;;;;;;5103934;28;20222;-71
2021/07/23 11:59:22;;;;;;;4.30;2.50;;;25.50;50.50;;;;;;5106442;28;20719;-70
2021/07/23 12:01:50;;;;;;;3.67;2.30;;;25.40;51.00;;;;;;5103686;28;20680;-71
2021/07/23 12:04:29;;;;;;;3.83;2.17;;;25.40;51.30;;;;;;5098907;28;20216;-69
2021/07/23 12:07:01;;;;;;;3.43;1.93;;;25.40;51.40;;;;;;5088226;28;20188;-67
2021/07/23 12:09:28;;;;;;;2.23;1.93;;;25.40;51.20;;;;;;5100883;28;20219;-71
2021/07/23 12:12:00;;;;;;;2.37;2.20;;;25.40;51.40;;;;;;5097235;28;20212;-71
2021/07/23 12:14:30;;;;;;;3.13;2.30;;;25.40;51.20;;;;;;5101298;28;20929;-72
2021/07/23 12:17:02;;;;;;;2.70;1.83;;;25.30;50.90;;;;;;5099265;28;20592;-70
2021/07/23 12:19:34;;;;;;;2.60;1.90;;;25.40;50.90;;;;;;5098417;28;20216;-71
2021/07/23 12:22:13;;;;;;;2.07;1.87;;;25.40;50.70;;;;;;5104096;27;20204;-68
2021/07/23 12:24:47;;;;;;;2.77;2.27;;;25.40;50.80;;;;;;5098960;28;20307;-73
2021/07/23 12:27:26;;;;;;;2.30;1.77;;;25.40;50.60;;;;;;5098740;28;20270;-70
2021/07/23 12:30:02;;;;;;;3.57;2.10;;;25.30;50.30;;;;;;5101832;28;20228;-72
2021/07/23 12:32:35;;;;;;;2.23;2.03;;;25.40;50.60;;;;;;5097665;28;20264;-69
2021/07/23 12:35:05;;;;;;;3.07;2.40;;;25.30;50.30;;;;;;5096181;28;20205;-70
2021/07/23 12:37:35;;;;;;;3.33;2.30;;;25.30;50.50;;;;;;5096541;28;20208;-68
2021/07/23 12:40:06;;;;;;;3.13;2.10;;;25.30;50.50;;;;;;5104673;28;20230;-69
2021/07/23 12:42:36;;;;;;;2.30;2.10;;;25.30;50.50;;;;;;5103602;28;20837;-66
2021/07/23 12:45:08;;;;;;;7.73;2.30;;;25.30;50.30;;;;;;5104970;28;20220;-71
2021/07/23 12:47:45;;;;;;;8.60;3.00;;;25.20;51.10;;;;;;5096210;28;20235;-70
2021/07/23 12:50:15;;;;;;;3.53;3.00;;;25.40;53.70;;;;;;5099015;28;20204;-67
2021/07/23 12:52:54;;;;;;;9.53;2.70;;;25.50;54.00;;;;;;5099146;28;20540;-69
2021/07/23 12:55:28;;;;;;;8.37;2.83;;;25.70;54.50;;;;;;5104384;28;20654;-71
2021/07/23 12:57:58;;;;;;;5.90;2.63;;;25.90;55.20;;;;;;5099165;28;20204;-72
2021/07/23 13:00:27;;;;;;;7.30;3.03;;;26.10;55.50;;;;;;5102153;28;20326;-72
2021/07/23 13:02:59;;;;;;;5.97;3.10;;;26.20;55.30;;;;;;5102224;28;20292;-72
2021/07/23 13:05:33;;;;;;;3.20;2.90;;;26.30;55.20;;;;;;5102671;28;20777;-68
2021/07/23 13:08:06;;;;;;;5.47;2.60;;;26.40;55.20;;;;;;5099843;28;20261;-69
2021/07/23 13:10:37;;;;;;;5.00;2.80;;;26.40;55.20;;;;;;5101483;28;20197;-69
2021/07/23 13:13:11;;;;;;;3.17;2.70;;;26.50;55.40;;;;;;5103911;28;20200;-69
2021/07/23 13:15:43;;;;;;;4.90;2.23;;;26.50;55.70;;;;;;5100918;28;20231;-72